createdAt,value
2022-10-15T00:04:38.423Z,11.72
2022-10-15T00:09:37.651Z,11.47
2022-10-15T00:14:35.691Z,11.71
2022-10-15T00:19:35.976Z,11.87
2022-10-15T00:24:35.320Z,11.56
2022-10-15T00:29:34.025Z,11.57
2022-10-15T00:34:34.305Z,11.28
2022-10-15T00:39:39.378Z,10.55
2022-10-15T00:45:03.754Z,10.96
2022-10-15T00:50:17.557Z,10.86
2022-10-15T00:55:45.067Z,10.66
2022-10-15T01:00:46.342Z,10.96
2022-10-15T01:05:48.210Z,10.68
2022-10-15T01:11:29.416Z,10.61
2022-10-15T01:16:41.378Z,11.05
2022-10-15T01:22:00.693Z,10.49
2022-10-15T01:27:39.927Z,10.13
2022-10-15T01:32:52.302Z,10.30
2022-10-15T01:38:02.927Z,10.22
2022-10-15T01:43:05.021Z,9.90
2022-10-15T01:48:27.422Z,9.81
2022-10-15T01:53:31.006Z,9.44
2022-10-15T01:58:39.170Z,9.74
2022-10-15T02:04:05.437Z,9.87
2022-10-15T02:09:27.138Z,9.79
2022-10-15T02:14:39.272Z,9.93
2022-10-15T02:20:10.760Z,9.66
2022-10-15T02:25:14.482Z,9.67
2022-10-15T02:30:22.581Z,9.81
2022-10-15T02:35:25.594Z,9.79
2022-10-15T02:40:30.932Z,9.72
2022-10-15T02:45:34.200Z,9.66
2022-10-15T02:50:35.330Z,10.01
2022-10-15T02:55:33.753Z,9.98
2022-10-15T03:00:35.571Z,10.02
2022-10-15T03:05:37.467Z,10.06
2022-10-15T03:10:39.988Z,9.39
2022-10-15T03:15:42.285Z,9.14
2022-10-15T03:20:45.640Z,9.20
2022-10-15T03:25:47.576Z,9.61
2022-10-15T03:30:54.645Z,9.78
2022-10-15T03:35:54.530Z,9.86
2022-10-15T03:40:55.177Z,10.04
2022-10-15T03:46:03.558Z,9.41
2022-10-15T03:51:18.647Z,9.13
2022-10-15T03:56:31.096Z,8.96
2022-10-15T04:01:54.526Z,9.42
2022-10-15T04:07:02.507Z,9.46
2022-10-15T04:12:14.593Z,9.16
2022-10-15T04:22:59.434Z,9.23
2022-10-15T04:28:05.865Z,9.61
2022-10-15T04:33:10.630Z,9.57
2022-10-15T04:38:56.455Z,9.67
2022-10-15T04:44:24.459Z,9.88
2022-10-15T04:49:33.288Z,9.78
2022-10-15T05:00:57.668Z,9.81
2022-10-15T05:06:26.493Z,9.59
2022-10-15T05:17:48.263Z,9.58
2022-10-15T05:22:51.000Z,9.57
2022-10-15T05:33:28.283Z,9.69
2022-10-15T05:38:29.998Z,9.43
2022-10-15T05:43:37.367Z,9.42
2022-10-15T05:48:51.413Z,9.47
2022-10-15T05:54:00.372Z,9.50
2022-10-15T05:59:05.837Z,9.85
2022-10-15T06:04:07.197Z,10.18
2022-10-15T06:09:15.803Z,10.09
2022-10-15T06:14:21.225Z,10.49
2022-10-15T06:19:30.899Z,10.54
2022-10-15T06:24:35.563Z,10.55
2022-10-15T06:29:53.190Z,10.17
2022-10-15T06:34:52.913Z,10.13
2022-10-15T06:40:10.701Z,9.88
2022-10-15T06:45:15.879Z,10.12
2022-10-15T06:50:21.217Z,10.44
2022-10-15T06:55:20.938Z,10.10
2022-10-15T07:00:22.242Z,10.14
2022-10-15T07:05:24.317Z,10.58
2022-10-15T07:10:24.764Z,11.03
2022-10-15T07:15:23.945Z,10.90
2022-10-15T07:20:26.660Z,10.99
2022-10-15T07:25:30.809Z,11.59
2022-10-15T07:30:33.309Z,11.29
2022-10-15T07:35:35.143Z,11.51
2022-10-15T07:40:37.071Z,11.62
2022-10-15T07:45:39.726Z,11.92
2022-10-15T07:50:43.762Z,12.23
2022-10-15T07:55:46.319Z,11.77
2022-10-15T08:00:46.725Z,12.01
2022-10-15T08:06:02.053Z,12.31
2022-10-15T08:11:14.779Z,12.36
2022-10-15T08:16:17.263Z,12.79
2022-10-15T08:21:29.709Z,12.60
2022-10-15T08:26:27.724Z,12.47
2022-10-15T08:31:41.586Z,12.63
2022-10-15T08:36:51.749Z,12.88
2022-10-15T08:42:24.562Z,12.80
2022-10-15T08:47:52.934Z,13.04
2022-10-15T08:52:55.186Z,13.18
2022-10-15T08:58:00.982Z,12.93
2022-10-15T09:03:47.780Z,13.19
2022-10-15T09:09:01.092Z,13.49
2022-10-15T09:13:59.121Z,14.09
2022-10-15T09:18:59.854Z,14.39
2022-10-15T09:24:03.073Z,15.07
2022-10-15T09:29:33.549Z,15.45
2022-10-15T09:34:42.541Z,15.59
2022-10-15T09:40:02.754Z,16.00
2022-10-15T09:45:05.051Z,15.64
2022-10-15T09:50:10.963Z,16.04
2022-10-15T09:55:35.748Z,15.87
2022-10-15T10:01:01.849Z,15.84
2022-10-15T10:06:11.988Z,15.80
2022-10-15T10:11:21.083Z,15.85
2022-10-15T10:16:21.499Z,16.21
2022-10-15T10:21:50.645Z,16.10
2022-10-15T10:26:51.311Z,15.94
2022-10-15T10:31:59.567Z,16.18
2022-10-15T10:36:59.157Z,16.25
2022-10-15T10:42:02.054Z,16.29
2022-10-15T10:47:24.271Z,16.35
2022-10-15T10:52:35.439Z,16.56
2022-10-15T10:57:47.371Z,17.04
2022-10-15T11:02:48.453Z,17.00
2022-10-15T11:08:20.709Z,17.00
2022-10-15T11:14:01.803Z,17.15
2022-10-15T11:19:54.539Z,17.04
2022-10-15T11:25:21.650Z,17.33
2022-10-15T11:30:34.366Z,16.94
2022-10-15T11:35:54.465Z,17.19
2022-10-15T11:41:00.895Z,17.50
2022-10-15T11:46:12.131Z,17.55
2022-10-15T11:51:17.523Z,17.54
2022-10-15T11:56:39.478Z,17.33
2022-10-15T12:01:49.486Z,17.30
2022-10-15T12:06:51.776Z,17.85
2022-10-15T12:12:23.793Z,18.19
2022-10-15T12:17:35.964Z,18.69
2022-10-15T12:22:45.149Z,18.21
2022-10-15T12:27:43.565Z,18.23
2022-10-15T12:32:43.942Z,18.24
2022-10-15T12:37:48.951Z,18.31
2022-10-15T12:43:01.610Z,17.96
2022-10-15T12:48:07.576Z,18.32
2022-10-15T12:53:07.398Z,18.20
2022-10-15T12:58:38.354Z,18.22
2022-10-15T13:03:39.666Z,17.78
2022-10-15T13:08:38.758Z,17.24
2022-10-15T13:13:43.733Z,17.27
2022-10-15T13:18:49.685Z,17.30
2022-10-15T13:23:49.810Z,17.95
2022-10-15T13:28:52.993Z,18.13
2022-10-15T13:33:57.982Z,17.93
2022-10-15T13:39:01.733Z,17.75
2022-10-15T13:44:03.213Z,17.35
2022-10-15T13:49:11.899Z,17.42
2022-10-15T13:54:23.953Z,17.32
2022-10-15T13:59:23.356Z,17.11
2022-10-15T14:04:26.834Z,17.21
2022-10-15T14:09:34.849Z,17.33
2022-10-15T14:14:48.159Z,17.72
2022-10-15T14:20:26.917Z,17.27
2022-10-15T14:25:35.982Z,17.50
2022-10-15T14:30:36.911Z,17.05
2022-10-15T14:35:40.980Z,17.53
2022-10-15T14:41:06.477Z,17.59
2022-10-15T14:46:08.154Z,17.17
2022-10-15T14:51:14.949Z,17.36
2022-10-15T14:56:23.422Z,17.44
2022-10-15T15:01:22.552Z,17.40
2022-10-15T15:06:21.363Z,17.09
2022-10-15T15:11:23.558Z,16.84
2022-10-15T15:16:22.216Z,16.94
2022-10-15T15:21:24.118Z,16.72
2022-10-15T15:26:25.253Z,16.99
2022-10-15T15:31:24.483Z,16.81
2022-10-15T15:36:26.914Z,17.07
2022-10-15T15:41:26.532Z,16.83
2022-10-15T15:46:26.877Z,16.95
2022-10-15T15:51:30.895Z,17.17
2022-10-15T16:01:47.061Z,16.53
2022-10-15T16:06:50.721Z,16.39
2022-10-15T16:11:55.646Z,16.18
2022-10-15T16:16:55.316Z,15.94
2022-10-15T16:21:58.424Z,15.89
2022-10-15T16:26:58.340Z,15.81
2022-10-15T16:31:56.771Z,15.60
2022-10-15T16:36:56.288Z,15.68
2022-10-15T16:41:59.066Z,15.53
2022-10-15T16:47:00.682Z,15.22
2022-10-15T16:52:00.789Z,15.02
2022-10-15T16:57:01.894Z,15.09
2022-10-15T17:02:04.317Z,15.19
2022-10-15T17:07:03.595Z,14.87
2022-10-15T17:12:02.050Z,14.79
2022-10-15T17:17:01.285Z,14.82
2022-10-15T17:22:02.211Z,14.68
2022-10-15T17:27:08.527Z,14.64
2022-10-15T17:32:07.627Z,14.52
2022-10-15T17:37:11.190Z,14.40
2022-10-15T17:42:15.813Z,14.39
2022-10-15T17:47:14.313Z,14.09
2022-10-15T17:52:19.009Z,14.13
2022-10-15T17:57:19.840Z,14.05
2022-10-15T18:02:20.090Z,14.16
2022-10-15T18:07:20.282Z,14.29
2022-10-15T18:12:22.935Z,14.02
2022-10-15T18:17:22.069Z,13.92
2022-10-15T18:22:25.798Z,13.82
2022-10-15T18:27:28.175Z,13.91
2022-10-15T18:32:27.867Z,13.67
2022-10-15T18:37:34.388Z,13.78
2022-10-15T18:42:34.107Z,13.46
2022-10-15T18:47:41.470Z,13.82
2022-10-15T18:52:44.126Z,13.79
2022-10-15T18:57:49.389Z,13.64
2022-10-15T19:02:51.807Z,13.36
2022-10-15T19:08:00.262Z,13.28
2022-10-15T19:13:00.710Z,13.06
2022-10-15T19:18:06.075Z,13.13
2022-10-15T19:23:08.133Z,13.27
2022-10-15T19:28:12.028Z,13.16
2022-10-15T19:33:18.126Z,13.25
2022-10-15T19:38:34.313Z,12.97
2022-10-15T19:43:37.364Z,13.00
2022-10-15T19:48:36.726Z,12.91
2022-10-15T19:53:39.024Z,12.74
2022-10-15T19:58:37.655Z,12.58
2022-10-15T20:03:52.459Z,12.72
2022-10-15T20:08:52.350Z,12.76
2022-10-15T20:13:54.018Z,12.70
2022-10-15T20:18:56.600Z,12.62
2022-10-15T20:24:05.222Z,12.76
2022-10-15T20:29:05.197Z,12.56
2022-10-15T20:34:08.193Z,12.87
2022-10-15T20:39:10.030Z,12.85
2022-10-15T20:44:18.934Z,12.69
2022-10-15T20:49:20.723Z,12.80
2022-10-15T20:54:19.376Z,12.47
2022-10-15T20:59:21.040Z,12.35
2022-10-15T21:04:22.313Z,12.30
2022-10-15T21:09:24.082Z,12.52
2022-10-15T21:14:22.506Z,12.41
2022-10-15T21:19:25.637Z,12.65
2022-10-15T21:24:28.099Z,12.34
2022-10-15T21:29:28.530Z,12.35
2022-10-15T21:34:28.682Z,12.32
2022-10-15T21:39:27.576Z,12.11
2022-10-15T21:44:27.380Z,12.21
2022-10-15T21:49:26.802Z,12.38
2022-10-15T21:54:27.415Z,12.13
2022-10-15T21:59:30.069Z,11.97
2022-10-15T22:04:28.065Z,11.99
2022-10-15T22:09:30.931Z,11.99
2022-10-15T22:14:30.311Z,11.76
2022-10-15T22:19:34.000Z,11.42
2022-10-15T22:24:34.206Z,11.74
2022-10-15T22:29:34.361Z,11.47
2022-10-15T22:34:35.643Z,11.50
2022-10-15T22:39:35.516Z,11.30
2022-10-15T22:44:38.108Z,11.21
2022-10-15T22:49:35.688Z,11.22
2022-10-15T22:54:34.673Z,11.28
2022-10-15T22:59:33.396Z,11.37
2022-10-15T23:04:33.081Z,11.42
2022-10-15T23:09:34.416Z,11.31
2022-10-15T23:14:37.567Z,10.92
2022-10-15T23:19:36.321Z,10.71
2022-10-15T23:24:37.910Z,10.76
2022-10-15T23:29:37.691Z,10.85
2022-10-15T23:34:37.826Z,10.44
2022-10-15T23:39:38.104Z,10.52
2022-10-15T23:44:40.084Z,10.53
2022-10-15T23:49:40.906Z,10.50
2022-10-15T23:54:43.193Z,10.42
2022-10-15T23:59:45.591Z,10.48
